createdAt,value
2022-08-25T00:01:55.519Z,9.25
2022-08-25T00:07:03.142Z,9.75
2022-08-25T00:12:07.442Z,9.20
2022-08-25T00:17:10.489Z,10.60
2022-08-25T00:22:14.683Z,11.00
2022-08-25T00:27:17.951Z,10.00
2022-08-25T00:32:20.737Z,10.20
2022-08-25T00:37:24.849Z,10.50
2022-08-25T00:42:27.807Z,10.20
2022-08-25T00:47:31.359Z,10.80
2022-08-25T00:52:39.306Z,11.40
2022-08-25T00:57:46.895Z,10.60
2022-08-25T01:02:50.612Z,11.00
2022-08-25T01:07:58.540Z,11.25
2022-08-25T01:13:06.665Z,10.40
2022-08-25T01:18:17.435Z,10.25
2022-08-25T01:23:22.764Z,10.75
2022-08-25T01:28:25.654Z,11.00
2022-08-25T01:33:28.693Z,11.00
2022-08-25T01:38:32.768Z,10.80
2022-08-25T01:43:38.950Z,10.20
2022-08-25T01:48:41.813Z,12.40
2022-08-25T01:53:45.954Z,11.40
2022-08-25T01:58:49.959Z,11.00
2022-08-25T02:03:55.400Z,11.80
2022-08-25T02:09:01.235Z,9.60
2022-08-25T02:14:04.360Z,11.40
2022-08-25T02:19:09.496Z,11.40
2022-08-25T02:24:14.202Z,11.80
2022-08-25T02:29:17.655Z,12.60
2022-08-25T02:34:20.556Z,11.60
2022-08-25T02:39:24.741Z,11.00
2022-08-25T02:44:27.542Z,11.60
2022-08-25T02:49:32.076Z,12.80
2022-08-25T02:54:36.228Z,12.00
2022-08-25T02:59:39.281Z,12.20
2022-08-25T03:04:42.292Z,11.80
2022-08-25T03:09:47.005Z,10.00
2022-08-25T03:14:49.847Z,11.40
2022-08-25T03:19:52.987Z,12.00
2022-08-25T03:25:20.977Z,12.60
2022-08-25T03:30:27.286Z,12.20
2022-08-25T03:35:30.970Z,12.40
2022-08-25T03:40:35.408Z,11.80
2022-08-25T03:45:41.660Z,11.40
2022-08-25T03:50:51.410Z,13.60
2022-08-25T03:55:57.291Z,14.00
2022-08-25T04:01:00.868Z,16.40
2022-08-25T04:06:04.544Z,16.40
2022-08-25T04:11:10.885Z,17.20
2022-08-25T04:16:16.599Z,18.40
2022-08-25T04:21:21.244Z,15.80
2022-08-25T04:26:29.088Z,17.80
2022-08-25T04:31:33.332Z,18.20
2022-08-25T04:36:36.935Z,18.40
2022-08-25T04:41:41.080Z,17.20
2022-08-25T04:46:44.549Z,18.40
2022-08-25T04:51:47.919Z,17.20
2022-08-25T04:56:54.461Z,16.80
2022-08-25T05:02:02.326Z,18.00
2022-08-25T05:07:05.964Z,18.20
2022-08-25T05:12:10.591Z,17.80
2022-08-25T05:17:15.366Z,18.00
2022-08-25T05:22:18.115Z,18.60
2022-08-25T05:27:22.315Z,18.20
2022-08-25T05:32:25.101Z,18.00
2022-08-25T05:37:27.877Z,18.80
2022-08-25T05:42:32.101Z,17.80
2022-08-25T05:47:35.528Z,16.80
2022-08-25T05:52:38.805Z,18.00
2022-08-25T05:57:43.436Z,18.80
2022-08-25T06:02:48.381Z,19.20
2022-08-25T06:07:53.055Z,18.80
2022-08-25T06:12:57.550Z,18.00
2022-08-25T06:18:03.466Z,24.00
2022-08-25T06:23:06.547Z,19.00
2022-08-25T06:28:10.993Z,19.20
2022-08-25T06:33:14.706Z,18.80
2022-08-25T06:38:17.439Z,18.80
2022-08-25T06:43:22.067Z,18.00
2022-08-25T06:48:24.879Z,20.00
2022-08-25T06:53:27.857Z,20.40
2022-08-25T06:58:32.862Z,18.20
2022-08-25T07:03:35.635Z,19.00
2022-08-25T07:08:38.416Z,20.20
2022-08-25T07:13:43.445Z,20.20
2022-08-25T07:18:47.323Z,19.80
2022-08-25T07:23:50.150Z,20.00
2022-08-25T07:28:54.509Z,19.80
2022-08-25T07:34:14.922Z,19.00
2022-08-25T07:39:21.894Z,19.40
2022-08-25T07:44:28.016Z,19.20
2022-08-25T07:49:36.206Z,20.40
2022-08-25T07:54:42.845Z,19.80
2022-08-25T07:59:51.271Z,20.00
2022-08-25T08:04:54.753Z,19.60
2022-08-25T08:10:32.804Z,18.40
2022-08-25T08:15:22.543Z,17.80
2022-08-25T08:20:25.917Z,19.60
2022-08-25T08:25:28.992Z,18.20
2022-08-25T08:30:33.403Z,16.40
2022-08-25T08:35:37.697Z,16.60
2022-08-25T08:41:13.781Z,16.60
2022-08-25T08:46:19.122Z,16.20
2022-08-25T08:51:25.311Z,17.20
2022-08-25T08:56:45.453Z,15.60
2022-08-25T09:01:59.071Z,17.60
2022-08-25T09:07:07.649Z,17.60
2022-08-25T09:12:19.237Z,16.00
2022-08-25T09:17:39.361Z,16.20
2022-08-25T09:22:53.213Z,14.40
2022-08-25T09:28:18.152Z,16.00
2022-08-25T09:33:24.746Z,17.20
2022-08-25T09:38:29.559Z,16.00
2022-08-25T09:43:35.013Z,16.00
2022-08-25T09:48:55.554Z,16.00
2022-08-25T09:54:10.417Z,14.40
2022-08-25T09:59:34.082Z,18.00
2022-08-25T10:04:40.875Z,16.00
2022-08-25T10:09:44.717Z,17.00
2022-08-25T10:14:48.975Z,15.00
2022-08-25T10:20:13.688Z,14.40
2022-08-25T10:25:19.928Z,15.20
2022-08-25T10:30:31.803Z,14.80
2022-08-25T10:35:49.420Z,14.20
2022-08-25T10:40:57.746Z,15.80
2022-08-25T10:46:13.497Z,15.40
2022-08-25T10:51:32.736Z,12.40
2022-08-25T10:56:40.882Z,12.60
2022-08-25T11:01:56.117Z,13.60
2022-08-25T11:07:06.687Z,12.60
2022-08-25T11:12:15.949Z,12.00
2022-08-25T11:17:24.902Z,12.60
2022-08-25T11:22:38.325Z,13.20
2022-08-25T11:27:49.451Z,13.40
2022-08-25T11:32:54.357Z,13.40
2022-08-25T11:38:23.185Z,11.00
2022-08-25T11:43:45.763Z,12.00
2022-08-25T11:48:59.918Z,11.60
2022-08-25T11:54:24.917Z,11.60
2022-08-25T12:00:03.654Z,11.60
2022-08-25T12:05:12.625Z,11.60
2022-08-25T12:10:21.720Z,10.60
2022-08-25T12:15:29.057Z,11.80
2022-08-25T12:21:19.600Z,10.75
2022-08-25T12:26:37.534Z,11.40
2022-08-25T12:31:55.916Z,11.25
2022-08-25T12:37:06.697Z,12.50
2022-08-25T12:42:26.208Z,9.50
2022-08-25T12:47:33.799Z,10.00
2022-08-25T12:52:39.362Z,10.60
2022-08-25T12:57:47.347Z,10.40
2022-08-25T13:03:15.908Z,11.00
2022-08-25T13:08:52.100Z,9.25
2022-08-25T13:14:06.518Z,10.00
2022-08-25T13:19:20.151Z,11.00
2022-08-25T13:24:27.715Z,9.25
2022-08-25T13:29:37.569Z,9.75
2022-08-25T13:34:44.777Z,9.50
2022-08-25T13:39:56.601Z,10.00
2022-08-25T13:45:04.989Z,8.75
2022-08-25T13:50:23.348Z,9.00
2022-08-25T13:55:50.401Z,9.75
2022-08-25T14:01:23.530Z,9.00
2022-08-25T14:06:31.971Z,8.50
2022-08-25T14:11:44.703Z,8.00
2022-08-25T14:16:54.195Z,8.50
2022-08-25T14:22:02.144Z,9.00
2022-08-25T14:27:06.131Z,8.00
2022-08-25T14:32:10.798Z,8.50
2022-08-25T14:37:17.093Z,8.25
2022-08-25T14:42:20.111Z,8.00
2022-08-25T14:47:24.671Z,8.00
2022-08-25T14:52:30.365Z,9.00
2022-08-25T14:57:33.094Z,8.00
2022-08-25T15:02:42.238Z,8.25
2022-08-25T15:08:02.142Z,7.25
2022-08-25T15:13:06.154Z,7.25
2022-08-25T15:18:10.606Z,7.00
2022-08-25T15:23:14.363Z,8.00
2022-08-25T15:28:20.782Z,7.00
2022-08-25T15:33:26.807Z,8.75
2022-08-25T15:38:30.271Z,8.25
2022-08-25T15:43:33.033Z,8.00
2022-08-25T15:48:37.225Z,8.00
2022-08-25T15:53:40.259Z,7.25
2022-08-25T15:58:49.816Z,9.00
2022-08-25T16:03:54.780Z,8.00
2022-08-25T16:08:57.631Z,8.00
2022-08-25T16:14:00.452Z,8.75
2022-08-25T16:19:05.027Z,10.75
2022-08-25T16:24:08.977Z,11.00
2022-08-25T16:29:14.482Z,11.20
2022-08-25T16:34:18.627Z,14.00
2022-08-25T16:39:21.870Z,12.60
2022-08-25T16:44:27.080Z,12.80
2022-08-25T16:49:31.914Z,13.60
2022-08-25T16:54:52.574Z,12.20
2022-08-25T16:59:55.873Z,13.60
2022-08-25T17:05:00.637Z,12.00
2022-08-25T17:10:03.645Z,13.00
2022-08-25T17:15:07.931Z,13.40
2022-08-25T17:20:12.353Z,14.20
2022-08-25T17:25:15.372Z,11.80
2022-08-25T17:30:18.787Z,12.00
2022-08-25T17:35:23.050Z,12.20
2022-08-25T17:40:26.632Z,11.80
2022-08-25T17:45:30.061Z,13.40
2022-08-25T17:50:36.104Z,11.60
2022-08-25T17:55:39.741Z,12.40
2022-08-25T18:00:47.040Z,13.80
2022-08-25T18:05:51.210Z,12.60
2022-08-25T18:10:54.213Z,11.20
2022-08-25T18:15:57.697Z,12.40
2022-08-25T18:21:01.889Z,11.00
2022-08-25T18:26:06.685Z,13.60
2022-08-25T18:31:10.104Z,12.00
2022-08-25T18:36:14.563Z,10.60
2022-08-25T18:41:17.405Z,12.40
2022-08-25T18:46:22.646Z,12.60
2022-08-25T18:51:27.261Z,11.60
2022-08-25T18:56:30.948Z,12.00
2022-08-25T19:01:33.927Z,11.40
2022-08-25T19:06:38.364Z,11.20
2022-08-25T19:11:41.611Z,12.80
2022-08-25T19:16:44.441Z,11.00
2022-08-25T19:21:48.612Z,12.00
2022-08-25T19:26:54.641Z,12.40
2022-08-25T19:31:58.463Z,11.20
2022-08-25T19:37:07.396Z,11.00
2022-08-25T19:42:35.154Z,12.00
2022-08-25T19:47:34.491Z,12.25
2022-08-25T19:52:39.930Z,11.75
2022-08-25T19:57:45.484Z,11.40
2022-08-25T20:02:48.788Z,11.60
2022-08-25T20:07:54.786Z,11.75
2022-08-25T20:12:57.718Z,11.25
2022-08-25T20:18:01.105Z,13.60
2022-08-25T20:23:24.796Z,12.40
2022-08-25T20:28:27.911Z,10.25
2022-08-25T20:33:31.028Z,10.00
2022-08-25T20:38:36.366Z,12.40
2022-08-25T20:43:40.785Z,13.60
2022-08-25T20:48:44.439Z,12.00
2022-08-25T20:53:48.899Z,12.80
2022-08-25T20:58:51.913Z,12.00
2022-08-25T21:03:54.718Z,11.80
2022-08-25T21:08:58.949Z,14.80
2022-08-25T21:14:03.144Z,11.80
2022-08-25T21:19:11.096Z,12.80
2022-08-25T21:24:15.625Z,14.40
2022-08-25T21:29:20.690Z,13.20
2022-08-25T21:34:23.793Z,13.00
2022-08-25T21:39:31.937Z,13.80
2022-08-25T21:44:35.093Z,12.80
2022-08-25T21:49:38.095Z,12.80
2022-08-25T21:54:42.228Z,12.60
2022-08-25T21:59:45.399Z,13.40
2022-08-25T22:04:52.832Z,14.80
2022-08-25T22:09:57.712Z,14.80
2022-08-25T22:15:00.629Z,14.00
2022-08-25T22:20:04.002Z,14.00
2022-08-25T22:25:08.890Z,13.40
2022-08-25T22:30:14.414Z,16.80
2022-08-25T22:35:17.571Z,13.60
2022-08-25T22:40:24.132Z,13.60
2022-08-25T22:45:26.975Z,15.40
2022-08-25T22:50:31.304Z,13.40
2022-08-25T22:55:43.118Z,13.40
2022-08-25T23:00:46.093Z,14.40
2022-08-25T23:05:49.681Z,12.40
2022-08-25T23:10:56.456Z,15.80
2022-08-25T23:15:59.699Z,13.20
2022-08-25T23:21:24.163Z,15.80
2022-08-25T23:26:28.599Z,14.20
2022-08-25T23:31:31.543Z,13.80
2022-08-25T23:36:34.562Z,14.20
2022-08-25T23:41:39.832Z,14.40
2022-08-25T23:46:43.306Z,14.20
2022-08-25T23:51:48.849Z,14.20
2022-08-25T23:56:53.115Z,14.60
